Time;durP1;ratioP1;P1;durP2;ratioP2;P2;SDS_P1;SDS_P2;PMS_P1;PMS_P2;Temp;Humidity;BMP_temperature;BMP_pressure;BME280_temperature;BME280_humidity;BME280_pressure;Samples;Min_cycle;Max_cycle;Signal;HPM_P1;HPM_P2
2023/12/24 00:01:22;0.00;0.00;0.62;0.00;0.00;0.62;2.70;1.93;;;20.80;27.20;;;;;;2256015;61;20952;-54
2023/12/24 00:04:06;0.00;0.00;0.62;0.00;0.00;0.62;2.50;1.63;;;20.80;27.20;;;;;;2256800;61;20409;-57
2023/12/24 00:06:51;0.00;0.00;0.62;0.00;0.00;0.62;2.93;1.97;;;20.80;27.20;;;;;;2256257;61;20362;-55
2023/12/24 00:09:37;0.00;0.00;0.62;0.00;0.00;0.62;3.07;2.10;;;20.90;27.20;;;;;;2256005;61;20433;-60
2023/12/24 00:12:21;0.00;0.00;0.62;0.00;0.00;0.62;2.60;1.57;;;20.80;27.20;;;;;;2255844;61;20436;-56
2023/12/24 00:15:08;0.00;0.00;0.62;0.00;0.00;0.62;2.77;1.83;;;20.80;27.20;;;;;;2256693;61;20373;-56
2023/12/24 00:17:52;0.00;0.00;0.62;0.00;0.00;0.62;2.60;1.70;;;20.80;27.20;;;;;;2256577;61;20859;-58
2023/12/24 00:20:37;0.00;0.00;0.62;0.00;0.00;0.62;3.10;2.00;;;20.80;27.20;;;;;;2256068;61;20433;-57
2023/12/24 00:23:21;0.00;0.00;0.62;0.00;0.00;0.62;2.93;1.60;;;20.80;27.20;;;;;;2256383;61;20778;-54
2023/12/24 00:26:07;0.00;0.00;0.62;0.00;0.00;0.62;2.33;1.53;;;20.80;27.20;;;;;;2256035;61;20408;-60
2023/12/24 00:28:52;0.00;0.00;0.62;0.00;0.00;0.62;2.67;1.70;;;20.80;27.20;;;;;;2255794;61;20393;-58
2023/12/24 00:31:37;0.00;0.00;0.62;0.00;0.00;0.62;2.20;1.50;;;20.80;27.20;;;;;;2255964;61;20420;-54
2023/12/24 00:34:22;0.00;0.00;0.62;0.00;0.00;0.62;2.70;2.10;;;20.80;27.20;;;;;;2256291;61;20394;-58
2023/12/24 00:37:07;0.00;0.00;0.62;0.00;0.00;0.62;2.60;2.10;;;20.80;27.20;;;;;;2256385;61;20489;-54
2023/12/24 00:39:52;0.00;0.00;0.62;0.00;0.00;0.62;2.50;1.60;;;20.80;27.20;;;;;;2256767;61;20393;-56
2023/12/24 00:42:39;0.00;0.00;0.62;0.00;0.00;0.62;2.40;1.40;;;20.80;27.20;;;;;;2255666;61;20353;-57
2023/12/24 00:45:24;0.00;0.00;0.62;0.00;0.00;0.62;2.30;1.50;;;20.80;27.20;;;;;;2256543;61;20361;-57
2023/12/24 00:48:09;0.00;0.00;0.62;0.00;0.00;0.62;2.20;1.63;;;20.90;27.20;;;;;;2256655;61;20357;-55
2023/12/24 00:50:54;0.00;0.00;0.62;0.00;0.00;0.62;2.63;1.73;;;20.80;27.20;;;;;;2256143;61;20386;-57
2023/12/24 00:53:39;0.00;0.00;0.62;0.00;0.00;0.62;3.13;2.00;;;20.80;27.20;;;;;;2256051;61;20425;-57
2023/12/24 00:56:23;0.00;0.00;0.62;0.00;0.00;0.62;2.17;1.47;;;20.80;27.20;;;;;;2256196;61;20429;-54
2023/12/24 00:59:09;0.00;0.00;0.62;0.00;0.00;0.62;3.17;2.30;;;20.80;27.20;;;;;;2256712;61;20385;-54
2023/12/24 01:01:53;0.00;0.00;0.62;0.00;0.00;0.62;2.77;1.50;;;20.80;27.20;;;;;;2255548;61;20366;-57
2023/12/24 01:04:38;0.00;0.00;0.62;0.00;0.00;0.62;2.00;1.50;;;20.90;27.30;;;;;;2256140;61;20369;-55
2023/12/24 01:07:23;0.00;0.00;0.62;0.00;0.00;0.62;2.30;1.50;;;20.90;27.20;;;;;;2256538;61;20977;-57
2023/12/24 01:10:08;0.00;0.00;0.62;0.00;0.00;0.62;2.57;1.60;;;20.80;27.20;;;;;;2256307;61;20455;-60
2023/12/24 01:12:53;0.00;0.00;0.62;0.00;0.00;0.62;3.20;1.50;;;20.90;27.30;;;;;;2255834;61;20770;-57
2023/12/24 01:15:39;0.00;0.00;0.62;0.00;0.00;0.62;2.47;1.57;;;20.80;27.20;;;;;;2256357;61;20711;-55
2023/12/24 01:18:23;0.00;0.00;0.62;0.00;0.00;0.62;2.40;1.63;;;20.90;27.30;;;;;;2256163;61;20378;-56
2023/12/24 01:21:08;0.00;0.00;0.62;0.00;0.00;0.62;2.63;1.97;;;20.80;27.20;;;;;;2256154;61;20362;-58
2023/12/24 01:23:53;0.00;0.00;0.62;0.00;0.00;0.62;2.33;1.63;;;20.90;27.30;;;;;;2256269;61;20362;-55
2023/12/24 01:26:39;0.00;0.00;0.62;0.00;0.00;0.62;2.10;1.30;;;20.90;27.30;;;;;;2255501;61;20361;-56
2023/12/24 01:29:23;0.00;0.00;0.62;0.00;0.00;0.62;2.80;1.70;;;20.90;27.30;;;;;;2255893;61;20386;-55
2023/12/24 01:32:11;0.00;0.00;0.62;0.00;0.00;0.62;2.57;1.57;;;20.90;27.30;;;;;;2252936;61;20404;-58
2023/12/24 01:34:57;0.00;0.00;0.62;0.00;0.00;0.62;3.10;1.70;;;20.90;27.80;;;;;;2255960;61;20890;-56
2023/12/24 01:37:41;0.00;0.00;0.62;0.00;0.00;0.62;2.43;1.50;;;20.80;27.30;;;;;;2256044;61;20421;-58
2023/12/24 01:40:27;0.00;0.00;0.62;0.00;0.00;0.62;2.13;1.47;;;20.80;27.30;;;;;;2255807;61;20390;-56
2023/12/24 01:43:11;0.00;0.00;0.62;0.00;0.00;0.62;2.40;1.23;;;20.90;27.30;;;;;;2255142;61;20373;-59
2023/12/24 01:45:56;0.00;0.00;0.62;0.00;0.00;0.62;2.63;1.43;;;20.90;27.40;;;;;;2256350;61;20436;-60
2023/12/24 01:48:42;0.00;0.00;0.62;0.00;0.00;0.62;3.23;1.63;;;20.90;27.40;;;;;;2255911;61;20362;-57
2023/12/24 01:51:31;0.00;0.00;0.62;0.00;0.00;0.62;2.20;1.30;;;20.90;27.30;;;;;;2256238;61;20914;-54
2023/12/24 01:54:16;0.00;0.00;0.62;0.00;0.00;0.62;2.10;1.33;;;20.90;27.30;;;;;;2256335;61;20385;-54
2023/12/24 01:57:01;0.00;0.00;0.62;0.00;0.00;0.62;2.10;1.43;;;20.90;27.30;;;;;;2255819;61;20366;-55
2023/12/24 01:59:46;0.00;0.00;0.62;0.00;0.00;0.62;2.17;1.53;;;20.90;27.30;;;;;;2255856;61;20389;-57
2023/12/24 02:02:32;0.00;0.00;0.62;0.00;0.00;0.62;2.50;1.33;;;20.90;27.30;;;;;;2255630;61;20365;-58
2023/12/24 02:05:18;0.00;0.00;0.62;0.00;0.00;0.62;2.37;1.37;;;20.90;27.40;;;;;;2256051;61;20398;-54
2023/12/24 02:08:06;0.00;0.00;0.62;0.00;0.00;0.62;1.70;1.17;;;20.90;27.30;;;;;;2255856;61;20404;-56
2023/12/24 02:10:50;0.00;0.00;0.62;0.00;0.00;0.62;2.20;1.50;;;20.90;27.40;;;;;;2256025;61;20392;-56
2023/12/24 02:13:35;0.00;0.00;0.62;0.00;0.00;0.62;3.03;1.27;;;20.90;27.40;;;;;;2255988;61;20969;-57
2023/12/24 02:16:23;0.00;0.00;0.62;0.00;0.00;0.62;1.80;1.10;;;20.90;27.30;;;;;;2255796;61;20366;-57
2023/12/24 02:19:16;0.00;0.00;0.62;0.00;0.00;0.62;2.47;1.40;;;20.90;27.40;;;;;;2255966;61;20385;-54
2023/12/24 02:22:02;0.00;0.00;0.62;0.00;0.00;0.62;2.47;1.50;;;20.90;27.40;;;;;;2256061;61;20366;-54
2023/12/24 02:24:46;0.00;0.00;0.62;0.00;0.00;0.62;2.90;1.40;;;20.90;27.40;;;;;;2256626;61;20398;-58
2023/12/24 02:27:37;0.00;0.00;0.62;0.00;0.00;0.62;1.80;1.10;;;20.90;27.40;;;;;;2256070;61;20389;-57
2023/12/24 02:30:29;0.00;0.00;0.62;0.00;0.00;0.62;2.00;1.40;;;20.90;27.40;;;;;;2256713;61;20435;-58
2023/12/24 02:33:15;0.00;0.00;0.62;0.00;0.00;0.62;2.00;1.30;;;20.90;27.40;;;;;;2256134;61;20404;-59
2023/12/24 02:36:02;0.00;0.00;0.62;0.00;0.00;0.62;1.70;1.30;;;20.90;27.40;;;;;;2257206;61;20426;-60
2023/12/24 02:38:48;0.00;0.00;0.62;0.00;0.00;0.62;2.07;1.30;;;20.90;27.40;;;;;;2256655;61;20420;-57
2023/12/24 02:41:32;0.00;0.00;0.62;0.00;0.00;0.62;1.73;1.10;;;20.90;27.40;;;;;;2247936;61;20787;-61
2023/12/24 02:44:17;0.00;0.00;0.62;0.00;0.00;0.62;1.90;1.20;;;20.90;27.40;;;;;;2252673;61;20366;-58
2023/12/24 02:47:01;0.00;0.00;0.62;0.00;0.00;0.62;2.37;1.23;;;20.90;27.40;;;;;;2252470;61;20370;-57
2023/12/24 02:49:46;0.00;0.00;0.62;0.00;0.00;0.62;1.90;1.20;;;20.90;27.40;;;;;;2252032;61;20378;-56
2023/12/24 02:52:31;0.00;0.00;0.62;0.00;0.00;0.62;1.90;1.37;;;20.90;27.40;;;;;;2600349;45;20387;-58
2023/12/24 02:55:17;0.00;0.00;0.62;0.00;0.00;0.62;2.40;1.30;;;20.90;27.40;;;;;;2252455;61;20366;-56
2023/12/24 02:58:02;0.00;0.00;0.62;0.00;0.00;0.62;1.50;0.90;;;20.90;27.40;;;;;;2252874;61;20366;-55
2023/12/24 03:00:47;0.00;0.00;0.62;0.00;0.00;0.62;1.67;1.00;;;20.90;27.40;;;;;;2252668;61;20394;-56
2023/12/24 03:03:31;0.00;0.00;0.62;0.00;0.00;0.62;2.00;1.20;;;20.90;27.40;;;;;;2254525;61;20770;-57
2023/12/24 03:06:16;0.00;0.00;0.62;0.00;0.00;0.62;1.73;1.13;;;20.90;27.40;;;;;;2252913;61;20451;-61
2023/12/24 03:09:00;0.00;0.00;0.62;0.00;0.00;0.62;1.97;1.17;;;20.90;27.40;;;;;;2252791;61;20882;-60
2023/12/24 03:11:47;0.00;0.00;0.62;0.00;0.00;0.62;1.60;0.97;;;20.90;27.40;;;;;;2254422;61;20390;-57
2023/12/24 03:14:31;0.00;0.00;0.62;0.00;0.00;0.62;2.40;1.20;;;20.90;27.40;;;;;;2252756;61;20463;-56
2023/12/24 03:17:15;0.00;0.00;0.62;0.00;0.00;0.62;1.57;1.00;;;20.90;27.40;;;;;;2252290;61;20410;-58
2023/12/24 03:20:00;0.00;0.00;0.62;0.00;0.00;0.62;2.27;1.30;;;20.90;27.50;;;;;;2252758;61;20533;-58
2023/12/24 03:22:45;0.00;0.00;0.62;0.00;0.00;0.62;1.70;1.10;;;20.90;27.40;;;;;;2251961;61;20367;-54
2023/12/24 03:25:30;0.00;0.00;0.62;0.00;0.00;0.62;1.50;0.80;;;20.90;27.40;;;;;;2252494;61;20883;-56
2023/12/24 03:28:16;0.00;0.00;0.62;0.00;0.00;0.62;2.00;1.10;;;20.90;27.40;;;;;;2252831;61;20402;-53
2023/12/24 03:31:01;0.00;0.00;0.62;0.00;0.00;0.62;2.10;1.10;;;20.90;27.40;;;;;;2252757;61;20383;-54
2023/12/24 03:33:47;0.00;0.00;0.62;0.00;0.00;0.62;1.83;1.20;;;20.90;27.40;;;;;;2251754;61;20838;-59
2023/12/24 03:36:32;0.00;0.00;0.62;0.00;0.00;0.62;1.93;1.07;;;20.90;27.40;;;;;;2252843;61;20378;-57
2023/12/24 03:39:17;0.00;0.00;0.62;0.00;0.00;0.62;1.70;1.20;;;20.90;27.40;;;;;;2252666;61;20379;-56
2023/12/24 03:42:01;0.00;0.00;0.62;0.00;0.00;0.62;1.40;0.90;;;20.90;27.40;;;;;;2252418;61;20939;-53
2023/12/24 03:44:47;0.00;0.00;0.62;0.00;0.00;0.62;1.40;0.90;;;20.90;27.50;;;;;;2252128;61;20892;-56
2023/12/24 03:47:32;0.00;0.00;0.62;0.00;0.00;0.62;1.90;1.10;;;20.90;27.50;;;;;;2252242;61;20383;-56
2023/12/24 03:50:17;0.00;0.00;0.62;0.00;0.00;0.62;2.00;1.20;;;20.90;28.00;;;;;;2254907;61;20386;-59
2023/12/24 03:53:01;0.00;0.00;0.62;0.00;0.00;0.62;2.67;1.17;;;20.90;27.50;;;;;;2254671;61;20359;-59
2023/12/24 03:55:46;0.00;0.00;0.62;0.00;0.00;0.62;1.93;1.20;;;20.90;27.50;;;;;;2251762;61;20414;-58
2023/12/24 03:58:30;0.00;0.00;0.62;0.00;0.00;0.62;3.40;1.13;;;20.90;27.50;;;;;;2252788;61;20367;-54
2023/12/24 04:01:16;0.00;0.00;0.62;0.00;0.00;0.62;3.07;1.20;;;20.90;27.50;;;;;;2252429;61;20780;-58
2023/12/24 04:04:01;0.00;0.00;0.62;0.00;0.00;0.62;2.43;1.13;;;20.90;27.50;;;;;;2252581;61;20374;-57
2023/12/24 04:06:46;0.00;0.00;0.62;0.00;0.00;0.62;1.63;1.03;;;20.90;27.50;;;;;;2252765;61;20880;-52
2023/12/24 04:09:33;0.00;0.00;0.62;0.00;0.00;0.62;1.57;1.00;;;20.90;27.50;;;;;;2252231;61;20544;-52
2023/12/24 04:12:18;0.00;0.00;0.62;0.00;0.00;0.62;1.60;0.90;;;21.00;27.60;;;;;;2254616;61;20849;-57
2023/12/24 04:15:05;0.00;0.00;0.62;0.00;0.00;0.62;1.97;1.10;;;20.90;27.50;;;;;;2252483;61;20787;-60
2023/12/24 04:17:51;0.00;0.00;0.62;0.00;0.00;0.62;1.70;1.10;;;20.90;27.50;;;;;;2252327;61;20501;-54
2023/12/24 04:20:35;0.00;0.00;0.62;0.00;0.00;0.62;1.93;1.10;;;20.90;27.50;;;;;;2255098;61;20464;-59
2023/12/24 04:23:20;0.00;0.00;0.62;0.00;0.00;0.62;1.90;1.10;;;20.90;27.50;;;;;;2252216;61;20768;-55
2023/12/24 04:26:05;0.00;0.00;0.62;0.00;0.00;0.62;1.70;0.90;;;20.90;27.50;;;;;;2252515;61;20415;-60
2023/12/24 04:28:50;0.00;0.00;0.62;0.00;0.00;0.62;1.30;0.80;;;20.90;27.50;;;;;;2251992;61;20985;-56
2023/12/24 04:31:38;0.00;0.00;0.62;0.00;0.00;0.62;2.10;1.00;;;20.90;27.50;;;;;;2254125;61;20426;-60
2023/12/24 04:34:24;0.00;0.00;0.62;0.00;0.00;0.62;1.50;0.97;;;21.00;27.60;;;;;;2252574;61;20359;-59
2023/12/24 04:37:09;0.00;0.00;0.62;0.00;0.00;0.62;2.07;1.27;;;21.00;27.60;;;;;;2252725;61;20441;-58
2023/12/24 04:39:54;0.00;0.00;0.62;0.00;0.00;0.62;1.60;0.83;;;20.90;27.50;;;;;;2254596;61;20824;-57
2023/12/24 04:42:39;0.00;0.00;0.62;0.00;0.00;0.62;1.93;0.90;;;20.90;27.50;;;;;;2253481;61;20421;-58
2023/12/24 04:45:23;0.00;0.00;0.62;0.00;0.00;0.62;1.80;0.80;;;21.00;27.60;;;;;;2254700;61;20918;-59
2023/12/24 04:48:09;0.00;0.00;0.62;0.00;0.00;0.62;1.40;0.80;;;21.00;27.60;;;;;;2254599;61;20915;-56
2023/12/24 04:50:55;0.00;0.00;0.62;0.00;0.00;0.62;1.50;1.00;;;21.00;27.60;;;;;;2254857;61;20444;-57
2023/12/24 04:53:39;0.00;0.00;0.62;0.00;0.00;0.62;1.77;1.20;;;20.90;27.50;;;;;;2254070;61;20421;-53
2023/12/24 04:56:25;0.00;0.00;0.62;0.00;0.00;0.62;1.63;0.80;;;21.00;27.60;;;;;;2254759;61;20359;-54
2023/12/24 04:59:09;0.00;0.00;0.62;0.00;0.00;0.62;1.50;0.87;;;20.90;27.50;;;;;;2254722;61;20402;-54
2023/12/24 05:01:54;0.00;0.00;0.62;0.00;0.00;0.62;2.17;0.83;;;20.90;27.50;;;;;;2253951;61;20414;-60
2023/12/24 05:04:39;0.00;0.00;0.62;0.00;0.00;0.62;1.47;0.80;;;21.00;27.60;;;;;;2254809;61;20879;-56
2023/12/24 05:07:25;0.00;0.00;0.62;0.00;0.00;0.62;1.80;0.90;;;21.00;27.70;;;;;;2252182;61;20370;-57
2023/12/24 05:10:10;0.00;0.00;0.62;0.00;0.00;0.62;1.63;0.87;;;21.00;27.60;;;;;;2254593;61;20429;-53
2023/12/24 05:12:54;0.00;0.00;0.62;0.00;0.00;0.62;2.10;1.10;;;21.00;27.70;;;;;;2254280;61;20887;-58
2023/12/24 05:15:39;0.00;0.00;0.62;0.00;0.00;0.62;1.50;0.87;;;21.00;27.70;;;;;;2251992;61;20369;-57
2023/12/24 05:18:24;0.00;0.00;0.62;0.00;0.00;0.62;1.80;1.10;;;21.00;27.60;;;;;;2252562;61;20363;-58
2023/12/24 05:21:08;0.00;0.00;0.62;0.00;0.00;0.62;1.70;0.73;;;21.00;27.60;;;;;;2252276;61;20492;-54
2023/12/24 05:23:54;0.00;0.00;0.62;0.00;0.00;0.62;1.53;0.80;;;21.00;27.70;;;;;;2254098;61;20899;-56
2023/12/24 05:26:38;0.00;0.00;0.62;0.00;0.00;0.62;1.50;0.80;;;20.90;27.60;;;;;;2254811;61;20371;-55
2023/12/24 05:29:23;0.00;0.00;0.62;0.00;0.00;0.62;1.53;0.90;;;21.00;27.70;;;;;;2252432;61;20474;-56
2023/12/24 05:32:07;0.00;0.00;0.62;0.00;0.00;0.62;1.30;0.77;;;21.00;27.70;;;;;;2251586;61;20476;-57
2023/12/24 05:34:53;0.00;0.00;0.62;0.00;0.00;0.62;1.27;0.70;;;21.00;27.70;;;;;;2252417;61;20843;-60
2023/12/24 05:37:37;0.00;0.00;0.62;0.00;0.00;0.62;1.50;0.90;;;21.00;27.70;;;;;;2252427;61;20415;-58
2023/12/24 05:40:23;0.00;0.00;0.62;0.00;0.00;0.62;1.60;0.80;;;21.00;27.70;;;;;;2252219;61;20461;-55
2023/12/24 05:43:08;0.00;0.00;0.62;0.00;0.00;0.62;1.47;0.77;;;21.00;27.70;;;;;;2251888;61;20919;-58
2023/12/24 05:45:52;0.00;0.00;0.62;0.00;0.00;0.62;1.40;0.70;;;21.00;27.70;;;;;;2251899;61;20370;-57
2023/12/24 05:48:37;0.00;0.00;0.62;0.00;0.00;0.62;1.40;0.87;;;21.00;27.70;;;;;;2252302;61;20359;-59
2023/12/24 05:51:22;0.00;0.00;0.62;0.00;0.00;0.62;1.30;0.70;;;21.00;27.70;;;;;;2252257;61;20442;-59
2023/12/24 05:54:06;0.00;0.00;0.62;0.00;0.00;0.62;1.30;0.70;;;21.00;27.70;;;;;;2251770;61;20406;-56
2023/12/24 05:56:52;0.00;0.00;0.62;0.00;0.00;0.62;1.53;0.73;;;20.90;27.60;;;;;;2252860;61;20363;-56
2023/12/24 05:59:37;0.00;0.00;0.62;0.00;0.00;0.62;1.20;0.60;;;21.00;27.70;;;;;;2253048;61;20876;-56
2023/12/24 06:02:22;0.00;0.00;0.62;0.00;0.00;0.62;1.30;0.70;;;21.00;27.70;;;;;;2252393;61;20387;-58
2023/12/24 06:05:07;0.00;0.00;0.62;0.00;0.00;0.62;1.33;0.70;;;21.00;27.70;;;;;;2253005;61;20366;-56
2023/12/24 06:07:52;0.00;0.00;0.62;0.00;0.00;0.62;1.60;0.90;;;20.90;27.60;;;;;;2252861;61;20914;-58
2023/12/24 06:10:36;0.00;0.00;0.62;0.00;0.00;0.62;1.40;0.70;;;21.00;27.70;;;;;;2253284;61;20471;-60
2023/12/24 06:13:22;0.00;0.00;0.62;0.00;0.00;0.62;1.30;0.70;;;21.00;27.70;;;;;;2252526;61;20979;-58
2023/12/24 06:16:07;0.00;0.00;0.62;0.00;0.00;0.62;1.70;0.80;;;21.00;27.70;;;;;;2252731;61;20374;-60
2023/12/24 06:18:51;0.00;0.00;0.62;0.00;0.00;0.62;1.30;0.70;;;21.00;27.70;;;;;;2255268;61;20430;-56
2023/12/24 06:21:36;0.00;0.00;0.62;0.00;0.00;0.62;1.30;0.70;;;21.00;27.70;;;;;;2252779;61;20763;-56
2023/12/24 06:24:21;0.00;0.00;0.62;0.00;0.00;0.62;1.30;0.80;;;21.00;27.70;;;;;;2252587;61;20358;-59
2023/12/24 06:27:05;0.00;0.00;0.62;0.00;0.00;0.62;1.63;0.80;;;21.00;27.70;;;;;;2253083;61;20378;-54
2023/12/24 06:29:52;0.00;0.00;0.62;0.00;0.00;0.62;1.60;0.87;;;21.00;28.20;;;;;;2254902;61;20386;-55
2023/12/24 06:32:37;0.00;0.00;0.62;0.00;0.00;0.62;1.40;0.70;;;21.00;27.70;;;;;;2252527;61;20398;-57
2023/12/24 06:35:22;0.00;0.00;0.62;0.00;0.00;0.62;1.53;0.70;;;21.00;27.70;;;;;;2252723;61;20450;-56
2023/12/24 06:38:07;0.00;0.00;0.62;0.00;0.00;0.62;1.50;0.83;;;21.00;27.70;;;;;;2252699;61;20502;-58
2023/12/24 06:40:51;0.00;0.00;0.62;0.00;0.00;0.62;1.80;0.90;;;21.00;27.70;;;;;;2253025;61;20383;-54
2023/12/24 06:43:36;0.00;0.00;0.62;0.00;0.00;0.62;1.60;0.70;;;21.00;27.70;;;;;;2254929;61;20374;-50
2023/12/24 06:46:24;0.00;0.00;0.62;0.00;0.00;0.62;1.83;0.70;;;21.00;27.80;;;;;;2252561;61;20412;-58
2023/12/24 06:49:09;0.00;0.00;0.62;0.00;0.00;0.62;1.60;0.93;;;21.00;27.70;;;;;;2253199;61;20950;-57
2023/12/24 06:51:54;0.00;0.00;0.62;0.00;0.00;0.62;1.60;0.73;;;21.00;27.80;;;;;;2252183;61;20394;-52
2023/12/24 06:54:39;0.00;0.00;0.62;0.00;0.00;0.62;1.30;0.70;;;21.00;27.70;;;;;;2253118;61;20370;-53
2023/12/24 06:57:24;0.00;0.00;0.62;0.00;0.00;0.62;1.70;0.83;;;21.00;27.80;;;;;;2252775;61;20370;-56
2023/12/24 07:00:09;0.00;0.00;0.62;0.00;0.00;0.62;1.20;0.60;;;21.00;27.70;;;;;;2252674;61;20961;-56
2023/12/24 07:02:56;0.00;0.00;0.62;0.00;0.00;0.62;1.20;0.60;;;21.00;27.80;;;;;;2252573;61;20362;-56
2023/12/24 07:05:41;0.00;0.00;0.62;0.00;0.00;0.62;1.77;0.70;;;21.00;27.80;;;;;;2252915;61;20776;-57
2023/12/24 07:08:29;0.00;0.00;0.62;0.00;0.00;0.62;1.40;0.80;;;21.00;27.80;;;;;;2252340;61;20366;-57
2023/12/24 07:11:14;0.00;0.00;0.62;0.00;0.00;0.62;1.40;0.80;;;21.00;27.80;;;;;;2255191;61;20995;-51
2023/12/24 07:13:58;0.00;0.00;0.62;0.00;0.00;0.62;1.30;0.70;;;21.00;27.80;;;;;;2252420;61;20911;-54
2023/12/24 07:16:43;0.00;0.00;0.62;0.00;0.00;0.62;1.20;0.60;;;21.00;27.80;;;;;;2253047;61;20382;-55
2023/12/24 07:19:29;0.00;0.00;0.62;0.00;0.00;0.62;1.33;0.70;;;21.00;27.80;;;;;;2255079;61;20525;-56
2023/12/24 07:22:16;0.00;0.00;0.62;0.00;0.00;0.62;1.57;0.70;;;21.00;27.80;;;;;;2252217;61;20382;-56
2023/12/24 07:25:01;0.00;0.00;0.62;0.00;0.00;0.62;1.33;0.80;;;21.10;27.90;;;;;;2252852;61;20371;-53
2023/12/24 07:27:45;0.00;0.00;0.62;0.00;0.00;0.62;1.30;0.77;;;21.00;27.80;;;;;;2252769;61;20378;-53
2023/12/24 07:30:30;0.00;0.00;0.62;0.00;0.00;0.62;1.40;0.80;;;21.10;27.90;;;;;;2252366;61;20391;-55
2023/12/24 07:33:16;0.00;0.00;0.62;0.00;0.00;0.62;1.20;0.60;;;21.00;27.80;;;;;;2252690;61;20895;-57
2023/12/24 07:36:02;0.00;0.00;0.62;0.00;0.00;0.62;1.30;0.70;;;21.10;27.90;;;;;;2252799;61;20383;-56
2023/12/24 07:38:46;0.00;0.00;0.62;0.00;0.00;0.62;1.30;0.70;;;21.00;27.90;;;;;;2252797;61;20642;-55
2023/12/24 07:41:31;0.00;0.00;0.62;0.00;0.00;0.62;1.30;0.73;;;21.00;27.80;;;;;;2252657;61;20350;-58
2023/12/24 07:44:16;0.00;0.00;0.62;0.00;0.00;0.62;1.30;0.60;;;21.00;27.90;;;;;;2254900;61;20367;-55
2023/12/24 07:47:01;0.00;0.00;0.62;0.00;0.00;0.62;1.40;0.70;;;21.00;27.90;;;;;;2252954;61;20386;-56
2023/12/24 07:49:45;0.00;0.00;0.62;0.00;0.00;0.62;1.30;0.60;;;21.10;27.90;;;;;;2252946;61;20386;-54
2023/12/24 07:52:31;0.00;0.00;0.62;0.00;0.00;0.62;1.30;0.60;;;21.00;27.90;;;;;;2251739;61;20942;-54
2023/12/24 07:55:16;0.00;0.00;0.62;0.00;0.00;0.62;1.30;0.60;;;21.00;27.80;;;;;;2252702;61;20363;-54
2023/12/24 07:58:00;0.00;0.00;0.62;0.00;0.00;0.62;1.30;0.60;;;21.00;27.90;;;;;;2252809;61;20863;-54
2023/12/24 08:00:45;0.00;0.00;0.62;0.00;0.00;0.62;1.40;0.80;;;21.10;27.90;;;;;;2252393;61;20398;-50
2023/12/24 08:03:29;0.00;0.00;0.62;0.00;0.00;0.62;1.50;0.70;;;21.00;27.90;;;;;;2254600;61;20358;-52
2023/12/24 08:06:18;0.00;0.00;0.62;0.00;0.00;0.62;1.87;0.70;;;21.10;28.00;;;;;;2252632;61;20879;-54
2023/12/24 08:09:04;0.00;0.00;0.62;0.00;0.00;0.62;1.27;0.60;;;21.10;27.90;;;;;;2252811;61;20440;-57
2023/12/24 08:11:49;0.00;0.00;0.62;0.00;0.00;0.62;1.30;0.70;;;21.10;28.00;;;;;;2252399;61;20387;-57
2023/12/24 08:14:34;0.00;0.00;0.62;0.00;0.00;0.62;1.40;0.70;;;21.00;27.90;;;;;;2252333;61;20907;-55
2023/12/24 08:17:18;0.00;0.00;0.62;0.00;0.00;0.62;1.30;0.60;;;21.10;28.00;;;;;;2252740;61;20378;-53
2023/12/24 08:20:04;0.00;0.00;0.62;0.00;0.00;0.62;1.50;0.70;;;21.10;28.00;;;;;;2252216;61;20386;-56
2023/12/24 08:22:49;0.00;0.00;0.62;0.00;0.00;0.62;1.47;0.70;;;21.10;28.00;;;;;;2251960;61;20421;-55
2023/12/24 08:25:35;0.00;0.00;0.62;0.00;0.00;0.62;1.20;0.60;;;21.10;28.00;;;;;;2252772;61;20401;-54
2023/12/24 08:28:20;0.00;0.00;0.62;0.00;0.00;0.62;1.50;0.60;;;21.10;28.00;;;;;;2252367;61;20375;-51
2023/12/24 08:31:05;0.00;0.00;0.62;0.00;0.00;0.62;1.30;0.70;;;21.10;28.00;;;;;;2253689;61;20419;-58
2023/12/24 08:33:49;0.00;0.00;0.62;0.00;0.00;0.62;1.40;0.83;;;21.10;28.00;;;;;;2256494;61;20372;-51
2023/12/24 08:36:34;0.00;0.00;0.62;0.00;0.00;0.62;1.40;0.80;;;21.10;28.00;;;;;;2256252;61;20365;-54
2023/12/24 08:39:19;0.00;0.00;0.62;0.00;0.00;0.62;1.40;0.70;;;21.10;28.00;;;;;;2256200;61;20412;-58
2023/12/24 08:42:06;0.00;0.00;0.62;0.00;0.00;0.62;1.67;0.83;;;21.10;28.00;;;;;;2256083;61;20937;-54
2023/12/24 08:44:50;0.00;0.00;0.62;0.00;0.00;0.62;1.50;0.80;;;21.10;28.00;;;;;;2256186;61;20366;-56
2023/12/24 08:47:35;0.00;0.00;0.62;0.00;0.00;0.62;1.40;0.73;;;21.10;28.00;;;;;;2256525;61;20421;-52
2023/12/24 08:50:21;0.00;0.00;0.62;0.00;0.00;0.62;1.50;0.80;;;21.10;28.00;;;;;;2256296;61;20377;-54
2023/12/24 08:53:06;0.00;0.00;0.62;0.00;0.00;0.62;1.50;0.90;;;21.10;28.00;;;;;;2256171;61;20394;-57
2023/12/24 08:55:51;0.00;0.00;0.62;0.00;0.00;0.62;1.70;1.10;;;21.20;28.10;;;;;;2256658;61;20428;-52
2023/12/24 08:58:37;0.00;0.00;0.62;0.00;0.00;0.62;1.53;0.93;;;21.10;28.10;;;;;;2256184;61;20370;-54
2023/12/24 09:01:21;0.00;0.00;0.62;0.00;0.00;0.62;1.70;1.00;;;21.10;28.10;;;;;;2256516;61;20366;-53
2023/12/24 09:04:06;0.00;0.00;0.62;0.00;0.00;0.62;2.00;1.20;;;21.10;28.10;;;;;;2256412;61;20369;-53
2023/12/24 09:06:50;0.00;0.00;0.62;0.00;0.00;0.62;1.80;1.10;;;21.10;28.10;;;;;;2256224;61;20369;-53
2023/12/24 09:09:35;0.00;0.00;0.62;0.00;0.00;0.62;1.60;0.90;;;21.10;28.10;;;;;;2256389;61;20421;-57
2023/12/24 09:12:20;0.00;0.00;0.62;0.00;0.00;0.62;1.50;1.00;;;21.10;28.10;;;;;;2255844;61;20440;-58
2023/12/24 09:15:07;0.00;0.00;0.62;0.00;0.00;0.62;1.60;1.00;;;21.10;28.10;;;;;;2256451;61;20408;-58
2023/12/24 09:17:52;0.00;0.00;0.62;0.00;0.00;0.62;1.90;1.27;;;21.10;28.10;;;;;;2256669;61;20413;-57
2023/12/24 09:20:36;0.00;0.00;0.62;0.00;0.00;0.62;1.33;0.77;;;21.10;28.10;;;;;;2255981;61;20414;-53
2023/12/24 09:23:21;0.00;0.00;0.62;0.00;0.00;0.62;1.60;0.90;;;21.20;28.20;;;;;;2255913;61;20460;-60
2023/12/24 09:26:06;0.00;0.00;0.62;0.00;0.00;0.62;1.63;0.90;;;21.20;28.20;;;;;;2256510;61;20365;-51
2023/12/24 09:28:50;0.00;0.00;0.62;0.00;0.00;0.62;3.10;1.17;;;21.10;28.10;;;;;;2256067;61;20409;-53
2023/12/24 09:31:36;0.00;0.00;0.62;0.00;0.00;0.62;1.60;1.10;;;21.10;28.10;;;;;;2255817;61;20397;-58
2023/12/24 09:34:22;0.00;0.00;0.62;0.00;0.00;0.62;1.80;1.10;;;21.10;28.10;;;;;;2256533;61;20933;-56
2023/12/24 09:37:06;0.00;0.00;0.62;0.00;0.00;0.62;2.53;1.13;;;21.10;28.20;;;;;;2256436;61;20385;-55
2023/12/24 09:39:52;0.00;0.00;0.62;0.00;0.00;0.62;2.10;1.10;;;21.20;28.20;;;;;;2256581;61;20390;-54
2023/12/24 09:42:37;0.00;0.00;0.62;0.00;0.00;0.62;1.80;1.00;;;21.20;28.20;;;;;;2255665;61;20358;-55
2023/12/24 09:45:22;0.00;0.00;0.62;0.00;0.00;0.62;2.00;1.00;;;21.10;28.10;;;;;;2256436;61;20780;-59
2023/12/24 09:48:08;0.00;0.00;0.62;0.00;0.00;0.62;2.17;1.20;;;21.20;28.20;;;;;;2256446;61;20842;-55
2023/12/24 09:50:52;0.00;0.00;0.62;0.00;0.00;0.62;2.07;1.10;;;21.20;28.20;;;;;;2256180;61;20976;-56
2023/12/24 09:53:39;0.00;0.00;0.62;0.00;0.00;0.62;1.67;1.10;;;21.20;28.20;;;;;;2255906;61;20972;-56
2023/12/24 09:56:24;0.00;0.00;0.62;0.00;0.00;0.62;1.90;0.90;;;21.20;28.30;;;;;;2256446;61;20799;-54
2023/12/24 09:59:08;0.00;0.00;0.62;0.00;0.00;0.62;1.90;0.90;;;21.20;28.30;;;;;;2256038;61;20401;-55
2023/12/24 10:01:53;0.00;0.00;0.62;0.00;0.00;0.62;1.53;0.90;;;21.20;28.20;;;;;;2255895;61;20416;-57
2023/12/24 10:04:39;0.00;0.00;0.62;0.00;0.00;0.62;1.40;0.80;;;21.20;28.20;;;;;;2256095;61;20424;-56
2023/12/24 10:07:37;0.00;0.00;0.62;0.00;0.00;0.62;1.50;1.00;;;21.20;28.20;;;;;;2256381;61;20365;-55
2023/12/24 10:10:30;0.00;0.00;0.62;0.00;0.00;0.62;1.60;0.90;;;21.20;28.30;;;;;;2256087;61;20397;-52
2023/12/24 10:13:19;0.00;0.00;0.62;0.00;0.00;0.62;1.63;1.00;;;21.20;28.30;;;;;;2255683;61;20487;-54
2023/12/24 10:16:05;0.00;0.00;0.62;0.00;0.00;0.62;1.57;1.00;;;21.20;28.30;;;;;;2256337;61;20777;-61
2023/12/24 10:18:50;0.00;0.00;0.62;0.00;0.00;0.62;1.63;1.00;;;21.20;28.30;;;;;;2256461;61;20910;-59
2023/12/24 10:21:36;0.00;0.00;0.62;0.00;0.00;0.62;1.50;0.93;;;21.20;28.30;;;;;;2255862;61;20362;-56
2023/12/24 10:24:21;0.00;0.00;0.62;0.00;0.00;0.62;1.73;0.87;;;21.20;28.30;;;;;;2256540;61;20413;-56
2023/12/24 10:27:07;0.00;0.00;0.62;0.00;0.00;0.62;1.60;1.00;;;21.20;28.30;;;;;;2256003;61;20938;-54
2023/12/24 10:29:52;0.00;0.00;0.62;0.00;0.00;0.62;1.80;1.10;;;21.20;28.30;;;;;;2256637;61;20397;-52
2023/12/24 10:32:37;0.00;0.00;0.62;0.00;0.00;0.62;2.63;1.40;;;21.20;28.30;;;;;;2255935;61;20402;-52
2023/12/24 10:35:26;0.00;0.00;0.62;0.00;0.00;0.62;1.67;0.97;;;21.20;28.30;;;;;;2256048;61;20366;-59
2023/12/24 10:38:14;0.00;0.00;0.62;0.00;0.00;0.62;1.47;0.83;;;21.20;28.30;;;;;;2256403;61;20358;-57
2023/12/24 10:40:58;0.00;0.00;0.62;0.00;0.00;0.62;1.60;0.90;;;21.20;28.30;;;;;;2255933;61;20463;-53
2023/12/24 10:43:43;0.00;0.00;0.62;0.00;0.00;0.62;1.80;0.90;;;21.20;28.30;;;;;;2256688;61;20450;-54
2023/12/24 10:46:27;0.00;0.00;0.62;0.00;0.00;0.62;1.90;1.10;;;21.20;28.30;;;;;;2257012;61;20409;-53
2023/12/24 10:49:12;0.00;0.00;0.62;0.00;0.00;0.62;1.43;0.83;;;21.20;28.30;;;;;;2256497;61;20396;-58
2023/12/24 10:51:59;0.00;0.00;0.62;0.00;0.00;0.62;1.50;0.90;;;21.30;28.40;;;;;;2256577;61;20914;-55